Time;durP1;ratioP1;P1;durP2;ratioP2;P2;SDS_P1;SDS_P2;PMS_P1;PMS_P2;Temp;Humidity;BMP_temperature;BMP_pressure;BME280_temperature;BME280_humidity;BME280_pressure;Samples;Min_cycle;Max_cycle;Signal;HPM_P1;HPM_P2
2023/01/06 00:02:08;;;;;;;22.13;12.50;;;;;;;7.71;nan;102470.50;4953245;29;20483;-88
2023/01/06 00:04:45;;;;;;;23.03;12.17;;;;;;;7.70;nan;102457.94;4940858;29;20459;-89
2023/01/06 00:07:33;;;;;;;19.93;12.03;;;;;;;7.65;nan;102463.75;4955360;28;20461;-89
2023/01/06 00:10:01;;;;;;;21.83;12.40;;;;;;;7.52;nan;102446.75;4975985;28;20462;-89
2023/01/06 00:12:28;;;;;;;23.77;12.70;;;;;;;7.57;nan;102450.81;4957804;28;20967;-88
2023/01/06 00:15:04;;;;;;;20.97;12.17;;;;;;;7.46;nan;102441.84;4943990;29;20463;-89
2023/01/06 00:17:45;;;;;;;27.97;13.67;;;;;;;7.51;nan;102462.19;4937023;29;20471;-90
2023/01/06 00:24:01;;;;;;;22.80;11.03;;;;;;;7.44;nan;102444.72;4957619;29;20459;-89
2023/01/06 00:26:29;;;;;;;16.20;9.20;;;;;;;7.44;nan;102450.16;4979608;28;20542;-89
2023/01/06 00:28:57;;;;;;;19.50;10.20;;;;;;;7.42;nan;102445.81;4962336;28;20462;-90
2023/01/06 00:31:25;;;;;;;15.23;9.93;;;;;;;7.38;nan;102434.34;4940536;28;20423;-89
2023/01/06 00:33:57;;;;;;;16.00;9.03;;;;;;;7.40;nan;102443.22;4961251;28;20452;-90
2023/01/06 00:36:31;;;;;;;19.43;9.93;;;;;;;7.39;nan;102436.06;4966549;28;20462;-89
2023/01/06 00:39:05;;;;;;;17.30;9.30;;;;;;;7.42;nan;102438.53;4906069;29;20512;-89
2023/01/06 00:44:34;;;;;;;19.13;10.13;;;;;;;7.36;nan;102422.72;4943398;29;20992;-89
2023/01/06 00:47:03;;;;;;;19.20;11.30;;;;;;;7.38;nan;102438.91;4940611;29;20465;-89
2023/01/06 00:49:32;;;;;;;24.67;11.33;;;;;;;7.35;nan;102434.59;4956531;28;20451;-90
2023/01/06 00:52:05;;;;;;;23.47;9.90;;;;;;;7.32;nan;102436.72;4957208;28;20473;-89
2023/01/06 00:54:40;;;;;;;14.73;9.03;;;;;;;7.31;nan;102433.16;4959178;28;20454;-88
2023/01/06 00:57:17;;;;;;;15.80;8.80;;;;;;;7.31;nan;102433.16;4943382;28;20449;-88
2023/01/06 00:59:52;;;;;;;14.83;8.73;;;;;;;7.29;nan;102427.00;4958483;28;20462;-89
2023/01/06 01:02:22;;;;;;;11.40;6.40;;;;;;;7.27;nan;102429.84;4926921;28;20481;-89
2023/01/06 01:04:52;;;;;;;12.23;7.20;;;;;;;7.30;nan;102425.13;4943035;28;20465;-89
2023/01/06 01:07:20;;;;;;;14.80;7.73;;;;;;;7.23;nan;102420.22;4926947;28;20512;-88
2023/01/06 01:09:49;;;;;;;11.33;7.20;;;;;;;7.24;nan;102426.50;4942390;28;20447;-88
2023/01/06 01:12:18;;;;;;;13.60;8.80;;;;;;;7.20;nan;102423.19;4926052;28;20517;-89
2023/01/06 01:14:53;;;;;;;17.83;9.60;;;;;;;7.20;nan;102415.03;4927517;28;20466;-89
2023/01/06 01:17:29;;;;;;;16.07;9.73;;;;;;;7.15;nan;102416.41;4926676;28;20461;-89
2023/01/06 01:20:02;;;;;;;13.00;7.97;;;;;;;7.13;nan;102410.22;4911125;29;20512;-89
2023/01/06 01:22:29;;;;;;;15.77;8.40;;;;;;;7.08;nan;102418.81;4946889;28;20988;-89
2023/01/06 01:24:58;;;;;;;14.87;8.67;;;;;;;7.10;nan;102413.22;4941257;28;20458;-89
2023/01/06 01:27:34;;;;;;;18.53;9.40;;;;;;;7.07;nan;102411.63;4942252;28;20458;-89
2023/01/06 01:30:02;;;;;;;17.73;8.00;;;;;;;7.09;nan;102406.06;4941371;28;20467;-89
2023/01/06 01:32:55;;;;;;;17.03;9.90;;;;;;;7.08;nan;102407.06;4940246;28;20512;-89
2023/01/06 01:35:23;;;;;;;19.10;10.27;;;;;;;7.07;nan;102397.19;4953323;29;20477;-89
2023/01/06 01:37:54;;;;;;;16.93;10.30;;;;;;;7.08;nan;102407.06;4923928;29;20455;-89
2023/01/06 01:40:33;;;;;;;18.60;10.00;;;;;;;7.06;nan;102411.75;4956670;28;20446;-90
2023/01/06 01:43:05;;;;;;;16.10;9.47;;;;;;;7.02;nan;102410.28;4958556;28;20508;-89
2023/01/06 01:45:34;;;;;;;13.73;8.53;;;;;;;7.01;nan;102408.56;4958634;28;20505;-88
2023/01/06 01:48:05;;;;;;;13.90;9.17;;;;;;;6.99;nan;102415.97;4942492;28;20454;-89
2023/01/06 01:50:36;;;;;;;20.67;11.17;;;;;;;6.98;nan;102411.53;4949896;28;20481;-89
2023/01/06 01:53:12;;;;;;;17.47;10.97;;;;;;;6.91;nan;102409.34;4993361;28;20449;-89
2023/01/06 01:55:44;;;;;;;20.00;10.90;;;;;;;6.90;nan;102406.75;4977444;28;20450;-89
2023/01/06 01:58:26;;;;;;;21.23;10.70;;;;;;;6.93;nan;102417.34;4978171;28;20453;-89
2023/01/06 02:01:09;;;;;;;22.00;12.43;;;;;;;6.91;nan;102419.38;4980190;28;20513;-89
2023/01/06 02:03:40;;;;;;;19.03;9.70;;;;;;;6.90;nan;102423.94;4973629;28;20465;-89
2023/01/06 02:06:20;;;;;;;21.63;11.30;;;;;;;6.86;nan;102417.03;4977455;28;20482;-89
2023/01/06 02:09:26;;;;;;;17.60;12.00;;;;;;;6.88;nan;102430.50;4958217;28;20528;-89
2023/01/06 02:12:00;;;;;;;19.30;11.20;;;;;;;6.83;nan;102417.28;4974899;28;20457;-89
2023/01/06 02:14:28;;;;;;;20.47;10.50;;;;;;;6.82;nan;102420.97;4942199;28;20500;-89
2023/01/06 02:17:38;;;;;;;20.23;10.77;;;;;;;6.84;nan;102424.44;4938395;28;20475;-89
2023/01/06 02:20:29;;;;;;;15.13;8.70;;;;;;;6.78;nan;102430.38;4958278;28;20454;-88
2023/01/06 02:23:23;;;;;;;9.50;5.90;;;;;;;6.77;nan;102430.50;4989664;28;21066;-89
2023/01/06 02:26:25;;;;;;;12.97;6.80;;;;;;;6.71;nan;102440.03;4993328;28;20518;-89
2023/01/06 02:29:28;;;;;;;10.63;6.13;;;;;;;6.65;nan;102428.81;4993835;28;20507;-89
2023/01/06 02:32:17;;;;;;;11.33;6.83;;;;;;;6.59;nan;102425.59;4992438;28;20456;-89
2023/01/06 02:35:01;;;;;;;12.57;6.00;;;;;;;6.61;nan;102428.19;4991157;28;20517;-89
2023/01/06 02:38:07;;;;;;;14.77;6.77;;;;;;;6.63;nan;102437.09;4960779;28;20472;-89
2023/01/06 02:41:13;;;;;;;14.47;6.93;;;;;;;6.60;nan;102431.91;4996653;28;20527;-89
2023/01/06 02:44:18;;;;;;;9.20;6.00;;;;;;;6.62;nan;102435.34;4951175;28;21018;-89
2023/01/06 02:47:15;;;;;;;13.33;7.33;;;;;;;6.62;nan;102419.06;4993112;28;20462;-89
2023/01/06 02:49:48;;;;;;;10.83;6.93;;;;;;;6.57;nan;102408.56;4977069;28;20449;-89
2023/01/06 02:52:45;;;;;;;13.87;7.27;;;;;;;6.61;nan;102411.91;4968733;28;20446;-89
2023/01/06 02:55:32;;;;;;;13.73;7.90;;;;;;;6.61;nan;102417.34;4992443;28;20465;-89
2023/01/06 02:58:38;;;;;;;11.87;6.90;;;;;;;6.59;nan;102413.88;4992538;28;20465;-89
2023/01/06 03:01:12;;;;;;;11.93;7.20;;;;;;;6.47;nan;102409.47;4918559;29;20444;-88
2023/01/06 03:03:42;;;;;;;12.27;6.60;;;;;;;6.38;nan;102397.50;4902985;29;20493;-89
2023/01/06 03:06:21;;;;;;;13.93;7.00;;;;;;;6.49;nan;102408.34;4872451;29;20886;-88
2023/01/06 03:09:07;;;;;;;16.07;6.53;;;;;;;6.46;nan;102402.31;4884994;29;20485;-89
2023/01/06 03:11:35;;;;;;;12.40;6.70;;;;;;;6.47;nan;102404.03;4884034;29;20920;-90
2023/01/06 03:14:13;;;;;;;13.17;7.47;;;;;;;6.38;nan;102391.19;4869342;29;20466;-88
2023/01/06 03:16:59;;;;;;;26.10;12.43;;;;;;;6.50;nan;102407.38;4899413;29;20517;-89
2023/01/06 03:19:30;;;;;;;40.97;13.67;;;;;;;6.50;nan;102409.22;4884369;29;20546;-89
2023/01/06 03:22:00;;;;;;;31.77;12.00;;;;;;;6.38;nan;102385.78;4868551;29;20489;-89
2023/01/06 03:24:29;;;;;;;33.53;12.57;;;;;;;6.47;nan;102404.03;4899102;29;20457;-88
2023/01/06 03:26:57;;;;;;;33.57;12.50;;;;;;;6.45;nan;102400.59;4868368;29;20458;-89
2023/01/06 03:29:26;;;;;;;29.43;12.30;;;;;;;6.44;nan;102397.00;4868491;29;20446;-89
2023/01/06 03:35:33;;;;;;;21.17;10.13;;;;;;;6.46;nan;102397.75;4926655;28;20969;-89
2023/01/06 03:38:38;;;;;;;38.50;12.80;;;;;;;6.45;nan;102395.16;4953730;29;20459;-89
2023/01/06 03:45:12;;;;;;;34.40;12.83;;;;;;;6.44;nan;102398.84;4904445;29;20557;-89
2023/01/06 03:47:49;;;;;;;42.13;16.80;;;;;;;6.44;nan;102399.72;4930764;29;20461;-89
2023/01/06 03:50:47;;;;;;;63.73;21.37;;;;;;;6.44;nan;102394.28;4905564;29;20541;-89
2023/01/06 03:53:28;;;;;;;96.33;26.37;;;;;;;6.39;nan;102392.94;4902183;29;20998;-88
2023/01/06 03:56:08;;;;;;;90.10;24.50;;;;;;;6.38;nan;102385.78;4890677;29;20572;-89
2023/01/06 03:58:36;;;;;;;65.53;21.97;;;;;;;6.36;nan;102385.03;4890841;29;20850;-88
2023/01/06 04:01:15;;;;;;;27.20;11.13;;;;;;;6.33;nan;102385.31;4905447;29;20547;-88
2023/01/06 04:03:45;;;;;;;19.20;8.70;;;;;;;6.31;nan;102387.28;4921395;29;20495;-89
2023/01/06 04:06:19;;;;;;;30.43;8.30;;;;;;;6.26;nan;102384.06;4905079;29;20463;-88
2023/01/06 04:08:47;;;;;;;20.57;9.87;;;;;;;6.27;nan;102383.09;4905257;29;20465;-89
2023/01/06 04:14:16;;;;;;;44.50;16.30;;;;;;;6.26;nan;102389.50;4909507;29;20452;-88
2023/01/06 04:16:44;;;;;;;38.23;15.23;;;;;;;6.25;nan;102388.63;4920793;29;20459;-88
2023/01/06 04:19:14;;;;;;;35.03;14.97;;;;;;;6.26;nan;102381.34;4946275;28;20466;-88
2023/01/06 04:21:48;;;;;;;31.93;11.37;;;;;;;6.23;nan;102386.03;4956183;29;20462;-89
2023/01/06 04:24:16;;;;;;;25.93;11.00;;;;;;;6.16;nan;102382.09;4940535;28;20459;-87
2023/01/06 04:26:43;;;;;;;14.30;7.73;;;;;;;6.21;nan;102388.03;4978073;28;20449;-88
2023/01/06 04:29:12;;;;;;;22.20;9.50;;;;;;;6.17;nan;102386.53;4962613;28;20445;-88
2023/01/06 04:31:52;;;;;;;16.10;6.13;;;;;;;6.20;nan;102391.72;4962336;28;20458;-89
2023/01/06 04:34:20;;;;;;;15.03;7.13;;;;;;;6.15;nan;102388.53;4976670;28;20438;-89
2023/01/06 04:36:48;;;;;;;14.20;5.53;;;;;;;6.15;nan;102388.53;4958670;28;20461;-88
2023/01/06 04:39:20;;;;;;;13.50;5.67;;;;;;;6.12;nan;102379.78;4946936;28;20507;-89
2023/01/06 04:41:57;;;;;;;10.53;4.90;;;;;;;6.08;nan;102384.59;4978306;28;20472;-88
2023/01/06 04:44:25;;;;;;;10.90;5.23;;;;;;;5.99;nan;102374.47;4977929;28;20445;-88
2023/01/06 04:46:53;;;;;;;12.63;6.20;;;;;;;6.09;nan;102382.75;4961942;28;20453;-88
2023/01/06 04:49:21;;;;;;;11.53;5.87;;;;;;;6.05;nan;102376.69;4961778;28;20461;-89
2023/01/06 04:51:48;;;;;;;16.40;8.57;;;;;;;6.07;nan;102385.56;4961588;28;20469;-89
2023/01/06 04:54:22;;;;;;;21.57;9.57;;;;;;;6.05;nan;102371.25;4962383;28;20515;-88
2023/01/06 04:56:51;;;;;;;23.23;9.50;;;;;;;6.06;nan;102373.00;4977704;28;20441;-88
2023/01/06 04:59:22;;;;;;;17.30;6.60;;;;;;;6.04;nan;102368.66;4961568;28;20811;-88
2023/01/06 05:01:50;;;;;;;20.53;5.90;;;;;;;5.98;nan;102374.59;4983069;28;20441;-88
2023/01/06 05:04:19;;;;;;;7.47;4.43;;;;;;;5.93;nan;102366.84;4961751;28;20481;-89
2023/01/06 05:06:53;;;;;;;11.90;4.13;;;;;;;5.97;nan;102372.84;4977833;28;20488;-88
2023/01/06 05:09:22;;;;;;;7.13;3.93;;;;;;;5.98;nan;102366.44;4962474;28;20507;-88
2023/01/06 05:11:50;;;;;;;14.57;5.80;;;;;;;5.98;nan;102370.03;4969765;28;20972;-88
2023/01/06 05:14:27;;;;;;;14.80;7.67;;;;;;;6.00;nan;102373.47;4990009;28;20472;-90
2023/01/06 05:16:57;;;;;;;23.43;10.60;;;;;;;6.01;nan;102379.75;4974286;28;20955;-88
2023/01/06 05:20:01;;;;;;;19.70;9.43;;;;;;;6.01;nan;102383.34;4974896;28;20497;-88
2023/01/06 05:23:00;;;;;;;16.40;8.57;;;;;;;6.02;nan;102381.50;4977529;28;20488;-88
2023/01/06 05:25:33;;;;;;;17.30;9.40;;;;;;;5.99;nan;102379.88;4977580;28;20457;-88
2023/01/06 05:28:03;;;;;;;20.60;8.37;;;;;;;5.97;nan;102376.44;4970199;28;20426;-89
2023/01/06 05:30:31;;;;;;;16.30;7.63;;;;;;;5.96;nan;102374.75;4998805;28;20446;-88
2023/01/06 05:32:58;;;;;;;14.80;7.47;;;;;;;5.97;nan;102370.16;5007317;28;20470;-88
2023/01/06 05:35:35;;;;;;;13.47;7.00;;;;;;;6.05;nan;102392.97;4963294;28;21035;-88
2023/01/06 05:38:08;;;;;;;13.93;7.23;;;;;;;6.02;nan;102382.34;4967851;28;20847;-88
2023/01/06 05:40:36;;;;;;;12.93;6.60;;;;;;;6.02;nan;102387.78;4974318;28;20508;-89
2023/01/06 05:43:04;;;;;;;14.77;6.77;;;;;;;6.01;nan;102375.19;4957915;28;20478;-88
2023/01/06 05:45:37;;;;;;;15.53;7.97;;;;;;;5.98;nan;102375.44;4974116;28;20453;-89
2023/01/06 05:48:05;;;;;;;18.93;7.73;;;;;;;6.01;nan;102386.06;4974301;28;20457;-88
2023/01/06 05:50:33;;;;;;;12.70;6.83;;;;;;;5.94;nan;102370.41;4973808;28;20814;-89
2023/01/06 05:53:01;;;;;;;10.90;6.23;;;;;;;5.97;nan;102381.00;4961622;28;20468;-88
2023/01/06 05:55:30;;;;;;;13.00;6.97;;;;;;;5.95;nan;102386.56;4961346;28;20504;-89
2023/01/06 05:58:02;;;;;;;17.00;7.13;;;;;;;5.92;nan;102381.38;4992832;28;20445;-88
2023/01/06 06:00:31;;;;;;;12.83;6.37;;;;;;;5.86;nan;102388.13;4976997;28;20821;-88
2023/01/06 06:02:58;;;;;;;15.20;6.20;;;;;;;5.82;nan;102383.06;4961108;28;20480;-88
2023/01/06 06:05:27;;;;;;;21.00;7.00;;;;;;;5.84;nan;102383.81;4961292;28;20495;-89
2023/01/06 06:07:57;;;;;;;13.00;7.03;;;;;;;5.88;nan;102383.47;4992764;28;20457;-89
2023/01/06 06:10:25;;;;;;;13.17;6.83;;;;;;;5.86;nan;102376.41;4945444;28;20461;-89
2023/01/06 06:12:54;;;;;;;20.80;6.97;;;;;;;5.88;nan;102378.06;4977114;28;20457;-89
2023/01/06 06:15:21;;;;;;;12.40;5.17;;;;;;;5.93;nan;102384.97;4942703;28;20454;-88
2023/01/06 06:17:49;;;;;;;12.20;6.33;;;;;;;5.91;nan;102379.66;4943166;28;20461;-88
2023/01/06 06:20:23;;;;;;;10.23;5.50;;;;;;;5.96;nan;102384.72;4956732;28;20465;-89
2023/01/06 06:22:52;;;;;;;13.53;7.43;;;;;;;6.01;nan;102391.47;4980175;28;20524;-88
2023/01/06 06:25:22;;;;;;;20.13;10.03;;;;;;;6.02;nan;102386.91;4957287;28;20457;-89
2023/01/06 06:27:51;;;;;;;16.60;8.97;;;;;;;6.00;nan;102373.47;4993628;28;20456;-87
2023/01/06 06:30:18;;;;;;;20.27;9.97;;;;;;;6.00;nan;102384.34;4976532;28;20457;-88
2023/01/06 06:32:52;;;;;;;20.20;9.50;;;;;;;5.96;nan;102385.59;4977127;28;20687;-88
2023/01/06 06:35:19;;;;;;;21.90;9.67;;;;;;;5.96;nan;102388.31;4989196;28;20470;-88
2023/01/06 06:37:54;;;;;;;24.40;9.53;;;;;;;5.92;nan;102384.09;4961746;28;20494;-88
2023/01/06 06:40:28;;;;;;;19.60;9.37;;;;;;;5.92;nan;102397.66;4980145;28;20443;-88
2023/01/06 06:43:01;;;;;;;27.60;9.93;;;;;;;5.86;nan;102388.13;4960837;28;21023;-88
2023/01/06 06:45:35;;;;;;;23.13;9.57;;;;;;;5.91;nan;102387.81;4942170;28;20458;-88
2023/01/06 06:48:03;;;;;;;21.67;9.20;;;;;;;5.89;nan;102387.91;4942457;28;20446;-88
2023/01/06 06:50:33;;;;;;;20.67;9.97;;;;;;;5.89;nan;102390.63;4972766;28;20532;-89
2023/01/06 06:53:00;;;;;;;10.10;6.67;;;;;;;5.88;nan;102385.28;4937776;28;20471;-89
2023/01/06 06:55:30;;;;;;;13.33;7.07;;;;;;;5.86;nan;102392.69;4938276;29;20530;-89
2023/01/06 06:57:57;;;;;;;14.40;6.50;;;;;;;5.84;nan;102394.66;4949898;29;20451;-89
2023/01/06 07:00:32;;;;;;;12.03;6.23;;;;;;;5.81;nan;102390.34;4960046;28;20463;-89
2023/01/06 07:03:02;;;;;;;15.90;7.37;;;;;;;5.82;nan;102391.19;4948795;28;20976;-88
2023/01/06 07:05:29;;;;;;;17.93;8.40;;;;;;;5.80;nan;102396.75;4925698;28;20454;-89
2023/01/06 07:07:57;;;;;;;15.30;7.77;;;;;;;5.75;nan;102395.41;4907193;29;20462;-89
2023/01/06 07:10:27;;;;;;;16.83;7.70;;;;;;;5.76;nan;102397.13;4939895;29;20462;-88
2023/01/06 07:12:56;;;;;;;17.50;7.27;;;;;;;5.73;nan;102398.25;4941096;29;20463;-88
2023/01/06 07:15:29;;;;;;;13.00;7.10;;;;;;;5.72;nan;102401.06;4937591;29;20452;-88
2023/01/06 07:18:01;;;;;;;14.50;8.20;;;;;;;5.72;nan;102403.78;4907283;29;20460;-88
2023/01/06 07:20:30;;;;;;;13.73;7.63;;;;;;;5.68;nan;102407.72;4937505;29;20462;-88
2023/01/06 07:23:04;;;;;;;18.87;8.37;;;;;;;5.64;nan;102408.94;4925849;29;20483;-88
2023/01/06 07:25:31;;;;;;;15.63;8.00;;;;;;;5.62;nan;102406.34;4924970;29;20800;-87
2023/01/06 07:28:06;;;;;;;14.60;8.17;;;;;;;5.65;nan;102411.53;4909104;29;20945;-88
2023/01/06 07:30:33;;;;;;;19.93;8.43;;;;;;;5.61;nan;102412.75;4956562;29;20530;-89
2023/01/06 07:33:02;;;;;;;23.23;12.60;;;;;;;5.62;nan;102419.03;4922395;29;20530;-89
2023/01/06 07:35:36;;;;;;;14.67;8.60;;;;;;;5.62;nan;102413.63;4940250;28;20447;-89
2023/01/06 07:38:06;;;;;;;14.73;9.13;;;;;;;5.59;nan;102416.56;4927382;29;20478;-89
2023/01/06 07:40:34;;;;;;;17.40;10.40;;;;;;;5.53;nan;102413.38;4957851;28;20446;-89
2023/01/06 07:43:08;;;;;;;23.33;12.37;;;;;;;5.57;nan;102411.28;4925912;29;20958;-89
2023/01/06 07:45:36;;;;;;;20.20;10.07;;;;;;;5.58;nan;102415.69;4955131;29;20457;-89
2023/01/06 07:48:05;;;;;;;23.93;11.83;;;;;;;5.62;nan;102424.47;4957635;29;20932;-89
2023/01/06 07:50:36;;;;;;;13.30;7.67;;;;;;;5.60;nan;102419.16;4942337;29;20461;-89
2023/01/06 07:53:31;;;;;;;18.70;8.30;;;;;;;5.60;nan;102429.16;4961262;28;20454;-89
2023/01/06 07:55:59;;;;;;;18.03;7.03;;;;;;;5.52;nan;102413.50;4962046;28;20458;-89
2023/01/06 07:58:37;;;;;;;12.97;6.83;;;;;;;5.60;nan;102429.16;4963999;28;20468;-89
2023/01/06 08:01:07;;;;;;;25.73;13.20;;;;;;;5.59;nan;102427.41;4996364;28;20440;-88
2023/01/06 08:03:37;;;;;;;28.10;9.90;;;;;;;5.60;nan;102431.84;4979029;28;20484;-90
2023/01/06 08:06:12;;;;;;;40.13;8.73;;;;;;;5.61;nan;102425.44;4984165;28;20480;-89
2023/01/06 08:08:42;;;;;;;22.20;7.30;;;;;;;5.60;nan;102421.88;4979987;28;20454;-88
2023/01/06 08:11:12;;;;;;;16.93;6.90;;;;;;;5.64;nan;102431.50;4961547;28;20446;-89
2023/01/06 08:13:41;;;;;;;14.33;6.23;;;;;;;5.62;nan;102428.03;4925241;29;20505;-87
2023/01/06 08:16:18;;;;;;;11.53;5.57;;;;;;;5.68;nan;102432.13;4940774;29;20515;-89
2023/01/06 08:18:47;;;;;;;21.83;5.33;;;;;;;5.63;nan;102420.78;4956272;29;20459;-87
2023/01/06 08:21:15;;;;;;;10.37;5.37;;;;;;;5.64;nan;102419.78;4958038;28;20471;-88
2023/01/06 08:23:43;;;;;;;13.27;6.37;;;;;;;5.63;nan;102416.22;4963090;28;20479;-89
2023/01/06 08:26:13;;;;;;;12.00;5.30;;;;;;;5.76;nan;102435.13;4979142;28;20457;-88
2023/01/06 08:28:43;;;;;;;8.13;5.17;;;;;;;5.76;nan;102430.56;4961392;28;20465;-89
2023/01/06 08:31:37;;;;;;;9.60;5.50;;;;;;;5.91;nan;102439.34;4941074;29;20462;-89
2023/01/06 08:34:13;;;;;;;8.60;5.10;;;;;;;5.94;nan;102438.25;4958956;28;20470;-89
2023/01/06 08:36:42;;;;;;;11.27;5.30;;;;;;;5.99;nan;102426.03;4943277;28;20465;-88
2023/01/06 08:39:11;;;;;;;10.10;5.20;;;;;;;6.12;nan;102434.06;4942933;28;20517;-89
2023/01/06 08:41:41;;;;;;;10.17;5.27;;;;;;;6.18;nan;102439.84;4974364;28;20455;-89
2023/01/06 08:44:09;;;;;;;14.53;5.07;;;;;;;6.22;nan;102433.19;4970370;28;21038;-89
2023/01/06 08:46:39;;;;;;;13.97;5.20;;;;;;;6.34;nan;102435.91;4959028;28;20474;-89
2023/01/06 08:49:07;;;;;;;16.43;7.20;;;;;;;6.41;nan;102428.97;4956636;28;20519;-89
2023/01/06 08:51:35;;;;;;;12.50;7.03;;;;;;;6.49;nan;102434.66;4925937;28;20481;-88
2023/01/06 08:54:06;;;;;;;10.57;6.20;;;;;;;6.58;nan;102432.03;4973531;28;20446;-89
2023/01/06 08:56:37;;;;;;;9.37;5.40;;;;;;;6.73;nan;102440.78;4957203;28;20455;-89
2023/01/06 08:59:05;;;;;;;11.63;6.10;;;;;;;6.75;nan;102422.47;4957594;28;20454;-89
2023/01/06 09:01:35;;;;;;;14.57;5.57;;;;;;;6.92;nan;102438.25;4956146;28;20486;-88
2023/01/06 09:04:05;;;;;;;11.57;5.87;;;;;;;7.08;nan;102436.97;4939838;28;20481;-88
2023/01/06 09:06:35;;;;;;;12.93;6.50;;;;;;;7.17;nan;102439.75;4956486;28;20502;-89
2023/01/06 09:09:05;;;;;;;12.83;6.17;;;;;;;7.31;nan;102441.31;4942201;28;20947;-90
2023/01/06 09:11:32;;;;;;;11.63;6.17;;;;;;;7.39;nan;102441.50;4943361;28;20789;-90
2023/01/06 09:14:00;;;;;;;14.57;6.53;;;;;;;7.48;nan;102431.72;4957955;28;20463;-88
2023/01/06 09:43:39;;;;;;;47.73;22.57;;;;;;;8.98;nan;102478.13;4956745;29;20933;-92
2023/01/06 09:46:45;;;;;;;45.13;26.10;;;;;;;9.18;nan;102478.16;4960808;28;20480;-93
2023/01/06 09:56:46;;;;;;;32.40;17.17;;;;;;;9.85;nan;102471.78;5003896;28;20939;-90
2023/01/06 09:59:25;;;;;;;26.13;15.07;;;;;;;10.13;nan;102479.06;4981858;28;20456;-90
2023/01/06 10:02:22;;;;;;;25.60;15.80;;;;;;;10.43;nan;102482.56;4987002;28;20465;-90
2023/01/06 10:12:06;;;;;;;25.60;12.67;;;;;;;11.31;nan;102474.56;4994841;28;20793;-89
2023/01/06 10:17:51;;;;;;;22.90;11.80;;;;;;;11.79;nan;102472.44;4994318;28;20456;-89
2023/01/06 10:20:53;;;;;;;32.60;14.27;;;;;;;12.02;nan;102479.13;4934315;29;20458;-90
2023/01/06 10:23:46;;;;;;;19.03;11.53;;;;;;;12.24;nan;102481.31;4934307;29;20455;-88
2023/01/06 10:26:54;;;;;;;18.47;11.37;;;;;;;12.45;nan;102479.06;4934180;29;20460;-90
2023/01/06 10:29:31;;;;;;;31.60;12.07;;;;;;;12.65;nan;102476.91;4919608;29;20451;-91
2023/01/06 10:32:01;;;;;;;17.93;9.00;;;;;;;12.78;nan;102465.47;4885018;29;20961;-89
2023/01/06 10:34:49;;;;;;;17.53;9.90;;;;;;;12.98;nan;102477.03;4915260;29;20472;-89
2023/01/06 10:37:37;;;;;;;14.83;9.10;;;;;;;13.10;nan;102465.53;4926790;29;20474;-89
2023/01/06 10:40:20;;;;;;;17.57;9.43;;;;;;;13.30;nan;102473.50;4959603;28;20462;-89
2023/01/06 10:43:07;;;;;;;25.97;9.13;;;;;;;13.44;nan;102470.13;4986933;28;20453;-89
2023/01/06 10:45:39;;;;;;;11.87;7.90;;;;;;;13.52;nan;102464.59;4966101;28;20482;-89
2023/01/06 10:48:26;;;;;;;30.80;8.23;;;;;;;13.75;nan;102476.63;4975845;28;20464;-88
2023/01/06 10:50:55;;;;;;;15.73;7.53;;;;;;;13.83;nan;102473.03;4971198;28;20468;-89
2023/01/06 10:53:26;;;;;;;17.73;9.63;;;;;;;14.01;nan;102472.84;4996500;28;20455;-88
2023/01/06 10:55:58;;;;;;;22.30;11.50;;;;;;;14.08;nan;102465.59;4994377;28;20477;-90
2023/01/06 10:58:49;;;;;;;16.20;9.10;;;;;;;14.16;nan;102468.34;4975347;28;20458;-89
2023/01/06 11:01:30;;;;;;;13.80;6.83;;;;;;;14.32;nan;102482.06;4994908;28;20464;-90
2023/01/06 11:04:12;;;;;;;14.90;6.03;;;;;;;14.46;nan;102481.34;4977681;28;20470;-90
2023/01/06 11:06:50;;;;;;;21.83;6.70;;;;;;;14.60;nan;102476.16;4946149;28;20924;-90
2023/01/06 11:09:35;;;;;;;12.07;6.50;;;;;;;14.80;nan;102480.22;4998229;28;20560;-90
2023/01/06 11:12:09;;;;;;;15.40;5.90;;;;;;;14.93;nan;102480.47;5011864;28;20453;-90
2023/01/06 11:14:37;;;;;;;13.93;5.60;;;;;;;15.08;nan;102472.31;4992622;28;20462;-91
2023/01/06 11:17:13;;;;;;;28.73;7.30;;;;;;;15.19;nan;102469.16;4969671;28;20454;-90
2023/01/06 11:19:42;;;;;;;20.07;6.07;;;;;;;15.35;nan;102470.94;4945288;28;20449;-90
2023/01/06 11:22:35;;;;;;;21.60;9.67;;;;;;;15.54;nan;102474.06;4964662;28;20456;-90
2023/01/06 11:25:21;;;;;;;14.60;5.87;;;;;;;15.66;nan;102477.25;4980928;28;20484;-90
2023/01/06 11:28:11;;;;;;;31.20;14.80;;;;;;;15.73;nan;102472.72;4977816;28;20462;-90
2023/01/06 11:34:25;;;;;;;13.17;6.03;;;;;;;15.81;nan;102461.59;5010582;28;20427;-93
2023/01/06 11:36:56;;;;;;;11.40;5.37;;;;;;;15.80;nan;102448.88;4951470;28;20453;-92
2023/01/06 11:39:32;;;;;;;15.10;6.50;;;;;;;15.96;nan;102447.03;4995303;28;20821;-89
2023/01/06 11:42:17;;;;;;;12.33;6.10;;;;;;;16.01;nan;102445.38;5012629;28;20985;-91
2023/01/06 11:44:45;;;;;;;17.43;7.40;;;;;;;16.05;nan;102451.41;4960669;28;20485;-89
2023/01/06 11:47:23;;;;;;;15.47;6.47;;;;;;;16.04;nan;102444.16;4945106;28;20446;-89
2023/01/06 11:50:00;;;;;;;12.50;5.57;;;;;;;16.08;nan;102456.53;4944702;28;20433;-88
2023/01/06 11:52:35;;;;;;;19.10;6.00;;;;;;;16.10;nan;102441.50;4976092;28;20462;-89
2023/01/06 11:55:06;;;;;;;16.63;8.37;;;;;;;16.12;nan;102438.56;4956456;29;20471;-89
2023/01/06 11:57:40;;;;;;;18.27;9.30;;;;;;;16.19;nan;102434.84;4955390;28;20467;-88
2023/01/06 12:00:31;;;;;;;16.63;8.50;;;;;;;16.33;nan;102435.91;4956750;29;20455;-89
2023/01/06 12:03:24;;;;;;;16.87;8.63;;;;;;;16.47;nan;102432.28;4957383;28;20459;-88
2023/01/06 12:06:12;;;;;;;17.00;8.77;;;;;;;16.56;nan;102428.38;4956544;29;20490;-88
2023/01/06 12:08:58;;;;;;;99.70;55.67;;;;;;;16.69;nan;102422.22;4883391;29;20490;-88
2023/01/06 12:11:42;;;;;;;28.57;14.40;;;;;;;16.80;nan;102418.09;4899045;29;20957;-88
2023/01/06 12:14:14;;;;;;;11.33;7.00;;;;;;;16.88;nan;102398.66;4882961;29;20469;-89
2023/01/06 12:17:32;;;;;;;21.33;9.20;;;;;;;17.06;nan;102404.59;4884883;29;20461;-88
2023/01/06 12:20:06;;;;;;;40.20;20.83;;;;;;;17.16;nan;102391.28;4883677;29;20445;-88
2023/01/06 12:22:58;;;;;;;18.53;10.03;;;;;;;17.37;nan;102392.34;4883696;29;20447;-88
2023/01/06 12:25:41;;;;;;;15.30;8.67;;;;;;;17.41;nan;102382.59;4898805;29;20489;-89
2023/01/06 12:28:30;;;;;;;14.53;5.47;;;;;;;17.45;nan;102384.78;4898565;29;20446;-88
2023/01/06 12:31:26;;;;;;;11.60;4.43;;;;;;;17.38;nan;102385.75;4898454;29;20438;-89
2023/01/06 12:34:00;;;;;;;13.23;5.53;;;;;;;17.29;nan;102386.97;4938044;29;20451;-88
2023/01/06 12:36:51;;;;;;;7.50;4.00;;;;;;;17.20;nan;102375.19;4955716;29;20459;-88
2023/01/06 12:39:44;;;;;;;7.37;3.23;;;;;;;17.12;nan;102378.09;4942252;29;20462;-88
2023/01/06 12:42:36;;;;;;;8.73;4.37;;;;;;;17.09;nan;102382.09;4958960;29;20442;-88
2023/01/06 12:45:23;;;;;;;12.50;4.80;;;;;;;17.11;nan;102373.63;4940087;29;20471;-88
2023/01/06 12:47:55;;;;;;;11.67;4.40;;;;;;;17.09;nan;102370.19;4956046;28;20453;-88
2023/01/06 12:50:41;;;;;;;10.03;3.90;;;;;;;17.01;nan;102365.63;4940197;29;20945;-88
2023/01/06 12:53:20;;;;;;;18.37;4.33;;;;;;;16.97;nan;102364.31;4957438;28;20466;-88
2023/01/06 12:56:02;;;;;;;10.43;4.30;;;;;;;16.87;nan;102358.28;4967964;28;21010;-88
2023/01/06 12:58:54;;;;;;;19.80;4.30;;;;;;;16.81;nan;102370.09;4976214;28;20947;-88
2023/01/06 13:02:04;;;;;;;10.80;3.37;;;;;;;16.68;nan;102364.41;4916529;29;20463;-88
2023/01/06 13:05:08;;;;;;;12.00;5.53;;;;;;;16.55;nan;102363.16;4913572;29;20488;-88
2023/01/06 13:07:42;;;;;;;14.20;4.30;;;;;;;16.48;nan;102353.09;4900205;29;20467;-88
2023/01/06 13:10:30;;;;;;;11.40;4.10;;;;;;;16.38;nan;102352.53;4841699;29;20456;-88
2023/01/06 13:13:21;;;;;;;63.77;28.47;;;;;;;16.36;nan;102349.97;4857133;29;20453;-88
2023/01/06 13:15:53;;;;;;;189.63;89.57;;;;;;;16.37;nan;102346.16;4856937;29;20573;-88
2023/01/06 13:18:29;;;;;;;144.57;86.60;;;;;;;16.46;nan;102341.41;4841795;29;20485;-88
2023/01/06 13:21:17;;;;;;;81.40;49.30;;;;;;;16.61;nan;102335.84;4841860;29;20550;-88
2023/01/06 13:24:02;;;;;;;24.30;14.23;;;;;;;16.91;nan;102343.03;4841689;29;21002;-88
2023/01/06 13:27:02;;;;;;;18.43;7.33;;;;;;;17.11;nan;102343.22;4841805;29;20471;-88